Time;durP1;ratioP1;P1;durP2;ratioP2;P2;SDS_P1;SDS_P2;PMS_P1;PMS_P2;Temp;Humidity;BMP_temperature;BMP_pressure;BME280_temperature;BME280_humidity;BME280_pressure;Samples;Min_cycle;Max_cycle;Signal;HPM_P1;HPM_P2
2021/10/04 00:01:10;;;;;;;4.07;3.00;;;;;;;19.31;100.00;96221.47;4970098;28;20066;-59
2021/10/04 00:03:40;;;;;;;3.35;2.75;;;;;;;19.54;100.00;96213.84;4967471;28;20093;-60
2021/10/04 00:06:09;;;;;;;3.22;2.63;;;;;;;19.68;100.00;96204.84;4969171;28;20070;-60
2021/10/04 00:08:38;;;;;;;3.50;2.70;;;;;;;19.75;100.00;96203.97;4970023;28;20070;-60
2021/10/04 00:11:06;;;;;;;3.15;2.60;;;;;;;19.66;100.00;96209.56;4968612;28;20062;-59
2021/10/04 00:13:35;;;;;;;4.15;2.95;;;;;;;18.90;100.00;96225.13;4968318;28;20085;-59
2021/10/04 00:16:03;;;;;;;4.22;2.75;;;;;;;19.32;100.00;96220.44;4964864;28;20729;-60
2021/10/04 00:18:32;;;;;;;5.35;2.80;;;;;;;18.80;100.00;96216.69;4971241;28;20073;-59
2021/10/04 00:21:02;;;;;;;4.22;3.20;;;;;;;18.95;100.00;96214.66;4967301;28;20062;-58
2021/10/04 00:23:31;;;;;;;3.20;2.72;;;;;;;18.66;100.00;96218.47;4966449;28;20074;-60
2021/10/04 00:25:59;;;;;;;3.88;3.03;;;;;;;18.80;100.00;96225.50;4961957;28;20090;-57
2021/10/04 00:28:29;;;;;;;4.30;3.20;;;;;;;18.61;100.00;96220.91;4972819;28;20082;-59
2021/10/04 00:30:57;;;;;;;3.65;3.10;;;;;;;18.48;100.00;96216.34;4975307;28;20097;-58
2021/10/04 00:33:44;;;;;;;3.38;2.85;;;;;;;18.84;100.00;96218.72;4971722;28;20081;-60
2021/10/04 00:36:15;;;;;;;3.63;2.80;;;;;;;19.52;100.00;96217.78;4973585;28;20110;-56
2021/10/04 00:38:43;;;;;;;5.25;3.22;;;;;;;19.01;100.00;96211.16;4971277;28;20564;-59
2021/10/04 00:41:11;;;;;;;4.47;2.80;;;;;;;18.82;100.00;96217.28;4975421;28;20073;-56
2021/10/04 00:43:40;;;;;;;4.25;3.00;;;;;;;18.68;100.00;96216.41;4975751;28;20062;-58
2021/10/04 00:46:09;;;;;;;6.95;3.28;;;;;;;18.73;100.00;96217.47;4977422;28;21692;-59
2021/10/04 00:48:38;;;;;;;4.88;2.72;;;;;;;18.57;100.00;96219.66;4976785;28;20070;-56
2021/10/04 00:51:06;;;;;;;2.95;2.65;;;;;;;18.62;100.00;96217.22;4965354;28;20065;-60
2021/10/04 00:53:37;;;;;;;5.47;3.03;;;;;;;19.00;100.00;96220.22;4971404;28;20062;-58
2021/10/04 00:56:07;;;;;;;3.90;3.20;;;;;;;18.73;100.00;96222.81;4975917;28;20513;-58
2021/10/04 00:58:35;;;;;;;3.90;2.95;;;;;;;19.41;100.00;96227.25;4973997;28;20097;-60
2021/10/04 01:01:04;;;;;;;3.70;3.08;;;;;;;19.62;100.00;96219.00;4971352;28;20074;-59
2021/10/04 01:03:33;;;;;;;3.42;2.83;;;;;;;19.00;100.00;96222.88;4978959;28;20074;-58
2021/10/04 01:06:01;;;;;;;3.88;3.08;;;;;;;19.01;100.00;96227.19;4954798;28;20307;-58
2021/10/04 01:08:30;;;;;;;3.10;2.55;;;;;;;19.37;100.00;96223.31;4974760;28;20047;-59
2021/10/04 01:11:00;;;;;;;4.88;3.20;;;;;;;19.25;100.00;96225.78;4974474;28;20074;-59
2021/10/04 01:13:29;;;;;;;3.80;3.00;;;;;;;19.47;100.00;96231.75;4975189;28;20194;-59
2021/10/04 01:15:57;;;;;;;3.72;3.03;;;;;;;19.22;100.00;96223.53;4974930;28;20437;-58
2021/10/04 01:18:46;;;;;;;4.07;3.28;;;;;;;18.94;100.00;96218.34;4973879;28;20043;-58
2021/10/04 01:21:15;;;;;;;3.67;2.78;;;;;;;19.20;100.00;96223.75;4979494;28;20062;-59
2021/10/04 01:23:44;;;;;;;5.75;3.28;;;;;;;19.36;100.00;96216.31;4972791;28;20531;-58
2021/10/04 01:26:13;;;;;;;3.13;2.70;;;;;;;19.32;100.00;96215.09;4970979;28;20066;-56
2021/10/04 01:28:42;;;;;;;3.40;2.97;;;;;;;19.55;100.00;96209.34;4974177;28;20530;-59
2021/10/04 01:31:10;;;;;;;3.70;2.97;;;;;;;19.07;100.00;96220.22;4977909;28;20090;-57
2021/10/04 01:33:39;;;;;;;3.97;2.80;;;;;;;19.03;100.00;96227.84;4970971;28;20071;-56
2021/10/04 01:36:08;;;;;;;4.57;2.97;;;;;;;18.90;100.00;96222.47;4979288;28;20081;-59
2021/10/04 01:38:38;;;;;;;3.67;3.15;;;;;;;18.98;100.00;96223.06;4970040;28;20066;-58
2021/10/04 01:41:06;;;;;;;3.85;3.20;;;;;;;19.03;100.00;96211.78;4970288;28;20104;-60
2021/10/04 01:43:35;;;;;;;3.88;3.13;;;;;;;19.00;100.00;96214.88;4971253;28;20082;-58
2021/10/04 01:46:03;;;;;;;4.70;3.45;;;;;;;18.95;100.00;96220.81;4965575;28;20077;-60
2021/10/04 01:48:32;;;;;;;4.35;2.97;;;;;;;19.28;100.00;96220.03;4974732;28;20460;-60
2021/10/04 01:51:00;;;;;;;4.47;3.60;;;;;;;18.95;100.00;96228.00;4970569;28;20074;-57
2021/10/04 01:53:29;;;;;;;4.22;3.28;;;;;;;19.44;100.00;96216.97;4968717;28;20072;-59
2021/10/04 01:56:00;;;;;;;3.90;3.50;;;;;;;19.66;100.00;96220.25;4971764;28;20078;-59
2021/10/04 01:58:29;;;;;;;4.03;3.22;;;;;;;19.36;100.00;96224.34;4968874;28;20174;-60
2021/10/04 02:00:59;;;;;;;4.20;3.47;;;;;;;19.51;100.00;96227.66;4963999;28;20081;-60
2021/10/04 02:03:28;;;;;;;3.88;3.30;;;;;;;19.64;100.00;96233.00;4973812;28;20070;-60
2021/10/04 02:05:57;;;;;;;4.18;3.38;;;;;;;19.82;100.00;96231.53;4955881;28;20086;-60
2021/10/04 02:08:25;;;;;;;4.95;3.30;;;;;;;19.67;100.00;96232.59;4972475;28;20559;-60
2021/10/04 02:10:54;;;;;;;3.65;2.90;;;;;;;19.28;100.00;96238.75;4972001;28;20105;-58
2021/10/04 02:13:24;;;;;;;4.15;3.10;;;;;;;18.92;100.00;96241.75;4978107;28;20552;-58
2021/10/04 02:15:53;;;;;;;3.92;3.10;;;;;;;19.13;100.00;96238.94;4971023;28;20081;-60
2021/10/04 02:18:21;;;;;;;3.40;2.88;;;;;;;19.41;100.00;96237.94;4973001;28;20082;-61
2021/10/04 02:20:50;;;;;;;4.38;3.35;;;;;;;19.25;100.00;96235.66;4976157;28;20067;-61
2021/10/04 02:23:18;;;;;;;4.03;3.00;;;;;;;19.10;100.00;96235.88;4969771;28;20078;-61
2021/10/04 02:25:49;;;;;;;4.93;3.55;;;;;;;19.05;100.00;96228.44;4970409;28;20551;-58
2021/10/04 02:28:18;;;;;;;4.22;3.50;;;;;;;19.30;100.00;96230.50;4975853;28;20087;-60
2021/10/04 02:30:51;;;;;;;4.20;3.35;;;;;;;19.05;100.00;96224.94;4974956;28;20043;-60
2021/10/04 02:33:20;;;;;;;3.90;3.30;;;;;;;19.28;100.00;96227.25;4969176;28;20077;-58
2021/10/04 02:35:48;;;;;;;4.97;3.20;;;;;;;19.57;100.00;96218.78;4973711;28;20070;-58
2021/10/04 02:38:17;;;;;;;5.63;3.38;;;;;;;19.09;100.00;96226.19;4972328;28;20136;-58
2021/10/04 02:40:49;;;;;;;3.97;2.95;;;;;;;19.50;100.00;96219.81;4973490;28;20120;-58
2021/10/04 02:43:18;;;;;;;4.40;3.20;;;;;;;19.21;100.00;96212.00;4970803;28;20082;-56
2021/10/04 02:45:48;;;;;;;4.68;3.30;;;;;;;19.42;100.00;96205.63;4969780;28;20058;-60
2021/10/04 02:48:17;;;;;;;;;;;;;;;19.03;100.00;96201.09;4980981;28;20069;-60
2021/10/04 02:50:46;;;;;;;3.95;3.40;;;;;;;19.23;100.00;96194.94;4967835;28;19961;-60
2021/10/04 02:53:14;;;;;;;5.03;2.95;;;;;;;18.84;100.00;96207.22;4969782;28;20563;-59
2021/10/04 02:55:43;;;;;;;3.75;3.15;;;;;;;19.09;100.00;96200.25;4968534;28;20082;-58
2021/10/04 02:58:11;;;;;;;6.55;3.20;;;;;;;18.78;100.00;96198.16;4973933;28;20089;-54
2021/10/04 03:00:40;;;;;;;3.78;2.92;;;;;;;18.32;100.00;96214.03;4970554;28;20097;-54
2021/10/04 03:03:10;;;;;;;5.53;3.10;;;;;;;17.99;100.00;96230.69;4978823;28;20062;-59
2021/10/04 03:05:38;;;;;;;5.25;3.40;;;;;;;18.29;100.00;96219.75;4968693;28;20081;-56
2021/10/04 03:08:07;;;;;;;5.25;3.28;;;;;;;18.53;100.00;96213.91;4973410;28;20062;-58
2021/10/04 03:10:36;;;;;;;5.35;3.35;;;;;;;18.37;100.00;96220.41;4966095;28;20090;-58
2021/10/04 03:13:05;;;;;;;4.28;3.13;;;;;;;18.60;100.00;96221.94;4972751;28;20062;-61
2021/10/04 03:15:34;;;;;;;6.30;3.42;;;;;;;18.40;100.00;96220.00;4969461;28;20081;-59
2021/10/04 03:18:03;;;;;;;5.18;3.20;;;;;;;18.35;100.00;96203.78;4971093;28;20070;-57
2021/10/04 03:20:34;;;;;;;4.90;2.97;;;;;;;18.41;100.00;96213.66;4968904;28;20073;-59
2021/10/04 03:23:03;;;;;;;3.88;3.22;;;;;;;18.29;100.00;96215.25;4971903;28;20076;-60
2021/10/04 03:25:31;;;;;;;5.85;3.60;;;;;;;18.00;100.00;96221.69;4969363;28;20082;-59
2021/10/04 03:28:00;;;;;;;4.55;3.28;;;;;;;18.17;100.00;96216.81;4969426;28;20066;-48
2021/10/04 03:30:28;;;;;;;6.25;3.20;;;;;;;17.86;100.00;96226.13;4977358;28;20093;-58
2021/10/04 03:32:57;;;;;;;5.38;3.33;;;;;;;18.54;100.00;96220.88;4973486;28;20070;-55
2021/10/04 03:35:25;;;;;;;4.97;3.55;;;;;;;18.47;100.00;96215.50;4972145;28;20068;-60
2021/10/04 03:37:55;;;;;;;5.40;3.50;;;;;;;18.53;100.00;96213.91;4968561;28;20078;-56
2021/10/04 03:40:24;;;;;;;3.97;3.42;;;;;;;18.55;100.00;96225.22;4970268;28;20090;-58
2021/10/04 03:42:52;;;;;;;4.38;3.30;;;;;;;18.64;100.00;96234.66;4968794;28;20066;-54
2021/10/04 03:45:21;;;;;;;4.70;3.17;;;;;;;18.63;100.00;96234.88;4973122;28;20066;-57
2021/10/04 03:47:49;;;;;;;7.70;3.20;;;;;;;18.69;100.00;96236.75;4974928;28;20070;-54
2021/10/04 03:50:18;;;;;;;4.18;3.22;;;;;;;18.67;100.00;96228.94;4967500;28;20074;-57
2021/10/04 03:52:47;;;;;;;4.57;3.50;;;;;;;18.78;100.00;96224.06;4966615;28;20462;-57
2021/10/04 03:55:18;;;;;;;4.82;3.45;;;;;;;18.53;100.00;96229.91;4970720;28;20122;-49
2021/10/04 03:57:46;;;;;;;;;;;;;;;18.55;100.00;96232.38;4972319;28;20066;-56
2021/10/04 04:00:17;;;;;;;4.43;3.47;;;;;;;18.66;100.00;96237.16;4968116;28;19961;-57
2021/10/04 04:02:46;;;;;;;4.72;3.25;;;;;;;18.68;100.00;96241.25;4972766;28;20571;-54
2021/10/04 04:05:15;;;;;;;6.05;3.50;;;;;;;18.39;100.00;96238.91;4972433;28;20070;-56
2021/10/04 04:07:43;;;;;;;4.82;3.90;;;;;;;18.68;100.00;96235.09;4968992;28;20090;-54
2021/10/04 04:10:13;;;;;;;6.63;3.85;;;;;;;18.67;100.00;96231.59;4970506;28;20551;-50
2021/10/04 04:12:44;;;;;;;7.18;3.55;;;;;;;18.53;100.00;96235.25;4974183;28;20070;-49
2021/10/04 04:15:13;;;;;;;7.60;3.78;;;;;;;18.82;100.00;96230.63;4971926;28;20073;-55
2021/10/04 04:17:41;;;;;;;8.57;3.55;;;;;;;18.69;100.00;96231.41;4967358;28;20101;-55
2021/10/04 04:20:11;;;;;;;5.03;3.28;;;;;;;18.70;100.00;96236.53;4965643;28;20073;-54
2021/10/04 04:22:40;;;;;;;4.45;3.40;;;;;;;18.86;100.00;96234.59;4973362;28;20564;-56
2021/10/04 04:25:10;;;;;;;4.60;3.50;;;;;;;18.90;100.00;96230.47;4967172;28;20351;-56
2021/10/04 04:27:39;;;;;;;6.75;3.58;;;;;;;18.63;100.00;96235.69;4967956;28;20070;-54
2021/10/04 04:30:12;;;;;;;6.68;3.63;;;;;;;18.77;100.00;96241.94;4971952;28;20332;-48
2021/10/04 04:32:42;;;;;;;5.20;3.30;;;;;;;18.90;100.00;96239.31;4972214;28;20097;-48
2021/10/04 04:35:11;;;;;;;5.47;3.47;;;;;;;18.95;100.00;96228.81;4970401;28;20076;-54
2021/10/04 04:37:41;;;;;;;7.57;3.50;;;;;;;18.87;100.00;96231.69;4970530;28;20086;-54
2021/10/04 04:40:12;;;;;;;5.22;3.75;;;;;;;18.62;100.00;96243.94;4970385;28;20393;-61
2021/10/04 04:42:42;;;;;;;5.68;3.20;;;;;;;17.89;100.00;96255.03;4972476;28;20073;-57
2021/10/04 04:45:14;;;;;;;4.38;3.03;;;;;;;18.41;100.00;96253.72;4970672;28;20066;-57
2021/10/04 04:47:43;;;;;;;4.32;3.30;;;;;;;18.77;100.00;96255.31;4971097;28;20074;-53
2021/10/04 04:50:12;;;;;;;4.55;3.25;;;;;;;18.31;100.00;96247.09;4968963;28;20070;-53
2021/10/04 04:52:41;;;;;;;3.97;3.13;;;;;;;18.41;100.00;96258.19;4966555;28;20090;-58
2021/10/04 04:55:11;;;;;;;6.22;3.10;;;;;;;17.54;100.00;96257.63;4970824;28;20066;-50
2021/10/04 04:57:42;;;;;;;7.15;3.08;;;;;;;17.67;100.00;96272.91;4976186;28;20077;-56
2021/10/04 05:00:13;;;;;;;5.20;3.50;;;;;;;17.90;100.00;96261.22;4969946;28;20073;-58
2021/10/04 05:02:43;;;;;;;3.88;2.80;;;;;;;18.32;100.00;96259.41;4969933;28;20058;-57
2021/10/04 05:05:13;;;;;;;4.43;3.00;;;;;;;18.37;100.00;96276.47;4967961;28;20086;-57
2021/10/04 05:07:42;;;;;;;3.85;2.92;;;;;;;18.48;100.00;96270.59;4971343;28;20569;-58
2021/10/04 05:10:11;;;;;;;4.00;3.10;;;;;;;18.59;100.00;96268.38;4971738;28;20449;-52
2021/10/04 05:12:40;;;;;;;3.50;2.90;;;;;;;18.70;100.00;96270.44;4969323;28;20082;-53
2021/10/04 05:15:09;;;;;;;5.45;3.20;;;;;;;18.59;100.00;96268.38;4975269;28;20072;-58
2021/10/04 05:17:40;;;;;;;3.75;2.80;;;;;;;18.53;100.00;96269.97;4972787;28;20071;-57
2021/10/04 05:20:09;;;;;;;3.38;2.45;;;;;;;18.38;100.00;96271.97;4967299;28;20078;-59
2021/10/04 05:22:38;;;;;;;3.00;2.53;;;;;;;18.34;100.00;96258.19;4971938;28;20552;-59
2021/10/04 05:25:08;;;;;;;4.05;2.88;;;;;;;18.42;100.00;96258.03;4976769;28;21267;-57
2021/10/04 05:27:37;;;;;;;3.35;2.45;;;;;;;18.42;100.00;96265.22;4969997;28;20075;-57
2021/10/04 05:30:07;;;;;;;3.15;2.75;;;;;;;18.49;100.00;96276.75;4970305;28;20552;-56
2021/10/04 05:32:36;;;;;;;3.20;2.42;;;;;;;18.48;100.00;96275.09;4976018;28;20059;-57
2021/10/04 05:35:07;;;;;;;3.13;2.60;;;;;;;18.46;100.00;96277.13;4975442;28;20072;-59
2021/10/04 05:37:36;;;;;;;2.83;2.50;;;;;;;18.28;100.00;96291.00;4972551;28;20074;-54
2021/10/04 05:40:05;;;;;;;3.90;2.65;;;;;;;18.24;100.00;96279.91;4971748;28;20468;-54
2021/10/04 05:42:34;;;;;;;3.37;2.70;;;;;;;18.31;100.00;96273.78;4974278;28;20101;-56
2021/10/04 05:45:05;;;;;;;3.03;2.60;;;;;;;18.51;100.00;96269.34;4971185;28;21426;-59
2021/10/04 05:47:34;;;;;;;3.65;2.95;;;;;;;18.48;100.00;96273.25;4969988;28;20097;-59
2021/10/04 05:50:05;;;;;;;3.40;2.60;;;;;;;18.41;100.00;96279.56;4975088;28;20143;-58
2021/10/04 05:52:33;;;;;;;3.08;2.45;;;;;;;18.38;100.00;96275.47;4958128;28;20082;-54
2021/10/04 05:55:02;;;;;;;4.47;2.70;;;;;;;18.49;100.00;96274.06;4973523;28;20069;-57
2021/10/04 05:57:31;;;;;;;3.40;2.60;;;;;;;18.49;100.00;96274.06;4971306;28;20070;-56
2021/10/04 05:59:59;;;;;;;5.15;2.80;;;;;;;18.57;100.00;96286.41;4973676;28;20081;-50
2021/10/04 06:02:27;;;;;;;2.78;2.30;;;;;;;18.41;100.00;96299.09;4972041;28;20081;-55
2021/10/04 06:04:56;;;;;;;3.55;2.60;;;;;;;18.76;100.00;96300.94;4971110;28;20097;-54
2021/10/04 06:07:26;;;;;;;3.08;2.47;;;;;;;19.13;100.00;96303.09;4975648;28;20082;-61
2021/10/04 06:09:54;;;;;;;3.53;2.42;;;;;;;19.07;100.00;96303.09;4977996;28;20070;-55
2021/10/04 06:12:26;;;;;;;4.28;2.20;;;;;;;19.37;100.00;96309.72;4971784;28;20082;-58
2021/10/04 06:14:55;;;;;;;3.03;2.47;;;;;;;19.71;100.00;96307.09;4973231;28;20074;-57
2021/10/04 06:17:24;;;;;;;3.10;2.20;;;;;;;19.75;100.00;96314.53;4971417;28;20046;-52
2021/10/04 06:19:53;;;;;;;3.67;2.33;;;;;;;19.89;100.00;96305.47;4971226;28;20094;-60
2021/10/04 06:22:22;;;;;;;3.45;2.03;;;;;;;19.95;100.00;96300.28;4973085;28;20090;-56
2021/10/04 06:24:52;;;;;;;2.85;2.10;;;;;;;19.92;100.00;96301.53;4978168;28;20077;-58
2021/10/04 06:27:21;;;;;;;2.80;2.20;;;;;;;20.06;100.00;96305.00;4974437;28;20070;-56
2021/10/04 06:29:50;;;;;;;2.88;2.17;;;;;;;20.23;100.00;96305.41;4970529;28;20468;-56
2021/10/04 06:32:18;;;;;;;1.92;1.67;;;;;;;20.06;100.00;96318.41;4970483;28;20071;-60
2021/10/04 06:34:47;;;;;;;2.13;1.77;;;;;;;20.35;100.00;96309.09;4972684;28;20102;-53
2021/10/04 06:37:15;;;;;;;2.83;1.75;;;;;;;20.43;100.00;96329.47;4972786;28;20081;-48
2021/10/04 06:39:44;;;;;;;2.22;1.88;;;;;;;20.88;100.00;96324.19;4966665;28;20070;-58
2021/10/04 06:42:13;;;;;;;2.38;1.95;;;;;;;20.18;100.00;96335.50;4977955;28;20066;-60
2021/10/04 06:44:42;;;;;;;2.38;2.00;;;;;;;20.37;100.00;96323.09;4970015;28;20070;-55
2021/10/04 06:47:10;;;;;;;2.15;1.90;;;;;;;20.69;100.00;96325.94;4970095;28;20081;-59
2021/10/04 06:49:39;;;;;;;2.33;1.90;;;;;;;20.76;100.00;96324.06;4973067;28;20094;-55
2021/10/04 06:52:07;;;;;;;3.45;1.95;;;;;;;20.32;100.00;96333.63;4975063;28;20490;-57
2021/10/04 06:54:36;;;;;;;2.35;1.80;;;;;;;20.73;100.00;96338.69;4967966;28;20078;-52
2021/10/04 06:57:04;;;;;;;2.65;1.85;;;;;;;20.45;100.00;96343.50;4972962;28;20488;-58
2021/10/04 06:59:34;;;;;;;2.53;1.88;;;;;;;20.77;100.00;96345.25;4974564;28;20080;-56
2021/10/04 07:02:03;;;;;;;1.90;1.70;;;;;;;20.24;100.00;96344.56;4972149;28;20070;-52
2021/10/04 07:04:32;;;;;;;1.95;1.70;;;;;;;20.62;100.00;96339.34;4970839;28;20093;-58
2021/10/04 07:07:00;;;;;;;1.98;1.77;;;;;;;20.32;100.00;96341.66;4974953;28;20078;-57
2021/10/04 07:09:29;;;;;;;2.10;1.85;;;;;;;20.92;100.00;96338.81;4970330;28;20069;-53
2021/10/04 07:11:57;;;;;;;3.13;2.03;;;;;;;20.79;100.00;96334.34;4968384;28;20074;-56
2021/10/04 07:14:26;;;;;;;5.40;2.30;;;;;;;21.12;100.00;96336.06;4969565;28;20477;-57
2021/10/04 07:16:56;;;;;;;2.40;1.80;;;;;;;20.86;100.00;96343.19;4972343;28;20117;-60
2021/10/04 07:19:25;;;;;;;2.25;1.80;;;;;;;20.86;100.00;96352.06;4974426;28;20124;-61
2021/10/04 07:21:54;;;;;;;2.95;1.88;;;;;;;20.95;100.00;96352.63;4970946;28;20454;-53
2021/10/04 07:24:23;;;;;;;2.83;1.70;;;;;;;21.01;100.00;96343.72;4976431;28;20075;-52
2021/10/04 07:26:51;;;;;;;2.53;1.70;;;;;;;20.59;100.00;96347.81;4970855;28;20525;-50
2021/10/04 07:29:20;;;;;;;2.53;1.50;;;;;;;20.57;100.00;96347.19;4972048;28;20489;-54
2021/10/04 07:31:49;;;;;;;2.58;1.80;;;;;;;21.14;100.00;96347.41;4950817;28;20552;-55
2021/10/04 07:34:19;;;;;;;2.17;1.87;;;;;;;20.97;100.00;96358.59;4974247;28;20089;-54
2021/10/04 07:36:48;;;;;;;1.90;1.67;;;;;;;21.03;100.00;96359.63;4974529;28;20481;-56
2021/10/04 07:39:16;;;;;;;2.20;1.60;;;;;;;;;;4968973;28;20509;-58
2021/10/04 07:41:46;;;;;;;4.40;1.67;;;;;;;21.31;100.00;96359.28;4970275;28;20533;-54
2021/10/04 07:44:16;;;;;;;2.60;1.48;;;;;;;21.52;99.38;96369.72;4970533;28;20066;-58
2021/10/04 07:46:44;;;;;;;5.25;2.03;;;;;;;21.51;96.92;96364.56;4968663;28;20089;-58
2021/10/04 07:49:13;;;;;;;6.70;1.58;;;;;;;21.46;96.37;96370.56;4973429;28;20085;-55
2021/10/04 07:51:58;;;;;;;1.92;1.40;;;;;;;21.61;92.78;96370.28;4973484;28;20070;-56
2021/10/04 07:54:27;;;;;;;2.30;1.45;;;;;;;21.36;92.46;96374.75;4973574;28;20073;-58
2021/10/04 07:56:55;;;;;;;2.38;1.50;;;;;;;21.50;92.08;96379.81;4968065;28;20072;-54
2021/10/04 07:59:24;;;;;;;2.45;1.80;;;;;;;21.55;92.29;96385.38;4967513;28;20074;-57
2021/10/04 08:01:52;;;;;;;1.90;1.40;;;;;;;21.49;94.23;96388.09;4971208;28;20471;-60
2021/10/04 08:04:21;;;;;;;2.63;1.73;;;;;;;21.42;92.53;96382.75;4974594;28;20141;-58
2021/10/04 08:06:49;;;;;;;1.73;1.40;;;;;;;21.45;98.12;96387.72;4971388;28;20446;-54
2021/10/04 08:09:19;;;;;;;2.67;1.45;;;;;;;22.05;94.42;96395.34;4976962;28;20509;-58
2021/10/04 08:11:48;;;;;;;2.20;1.80;;;;;;;21.81;95.28;96402.34;4968849;28;20077;-53
2021/10/04 08:14:16;;;;;;;2.17;1.60;;;;;;;21.79;95.87;96409.81;4968055;28;20069;-58
2021/10/04 08:16:45;;;;;;;3.40;1.60;;;;;;;21.45;94.84;96405.66;4968709;28;20090;-56
2021/10/04 08:19:13;;;;;;;4.75;1.80;;;;;;;22.07;92.46;96401.34;4977273;28;20081;-56
2021/10/04 08:21:42;;;;;;;2.83;1.75;;;;;;;21.70;95.20;96405.72;4968558;28;20062;-51
2021/10/04 08:24:10;;;;;;;2.50;1.60;;;;;;;21.70;97.27;96411.09;4967570;28;20073;-58
2021/10/04 08:26:41;;;;;;;4.10;1.70;;;;;;;21.22;100.00;96422.25;4967810;28;20473;-57
2021/10/04 08:29:09;;;;;;;2.60;1.40;;;;;;;20.81;100.00;96442.97;4972735;28;20127;-53
2021/10/04 08:31:37;;;;;;;1.67;1.40;;;;;;;20.91;100.00;96428.31;4969839;28;20114;-57
2021/10/04 08:34:06;;;;;;;1.98;1.50;;;;;;;20.54;100.00;96434.19;4965363;28;20434;-51
2021/10/04 08:36:35;;;;;;;1.75;1.48;;;;;;;20.73;100.00;96427.13;4972766;28;20070;-54
2021/10/04 08:39:05;;;;;;;2.00;1.40;;;;;;;20.37;100.00;96427.53;4966996;28;20066;-56
2021/10/04 08:41:35;;;;;;;1.67;1.35;;;;;;;20.60;100.00;96437.88;4969998;28;20074;-57
2021/10/04 08:44:08;;;;;;;2.22;1.48;;;;;;;20.51;100.00;96426.56;4967040;28;20086;-53
2021/10/04 08:46:38;;;;;;;1.88;1.40;;;;;;;20.66;100.00;96433.53;4974236;28;20086;-54
2021/10/04 08:49:12;;;;;;;2.92;1.80;;;;;;;20.74;100.00;96426.09;4968106;28;20566;-52
2021/10/04 08:51:41;;;;;;;1.80;1.40;;;;;;;20.30;100.00;96421.38;4975646;28;20497;-59
2021/10/04 08:54:09;;;;;;;2.05;1.65;;;;;;;20.33;100.00;96423.63;4974692;28;20170;-52
2021/10/04 08:56:39;;;;;;;2.03;1.63;;;;;;;20.52;100.00;96425.50;4973657;28;20081;-55
2021/10/04 08:59:09;;;;;;;1.98;1.50;;;;;;;20.23;100.00;96420.53;4969075;28;20071;-57
2021/10/04 09:01:38;;;;;;;1.80;1.50;;;;;;;20.21;100.00;96431.47;4978635;28;20563;-58
2021/10/04 09:04:07;;;;;;;1.80;1.50;;;;;;;20.15;100.00;96430.44;4977878;28;21523;-52
2021/10/04 09:06:37;;;;;;;2.80;1.80;;;;;;;20.10;100.00;96437.44;4971241;28;20082;-53
2021/10/04 09:09:07;;;;;;;1.70;1.60;;;;;;;20.21;100.00;96438.69;4973385;28;20074;-51
2021/10/04 09:11:37;;;;;;;2.17;1.50;;;;;;;19.84;100.00;96449.75;4973397;28;20077;-57
2021/10/04 09:14:15;;;;;;;4.28;1.50;;;;;;;20.09;100.00;96454.53;4970272;28;20078;-56
2021/10/04 09:16:57;;;;;;;2.42;1.65;;;;;;;19.77;100.00;96448.91;4972627;28;20543;-50
2021/10/04 09:19:30;;;;;;;2.35;1.80;;;;;;;19.86;100.00;96454.91;4975252;28;20086;-54
2021/10/04 09:22:04;;;;;;;2.38;1.70;;;;;;;19.50;100.00;96460.53;4973422;28;20103;-60
2021/10/04 09:24:34;;;;;;;2.50;1.70;;;;;;;19.80;100.00;96458.41;4971063;28;20077;-50
2021/10/04 09:27:03;;;;;;;2.10;1.90;;;;;;;19.37;100.00;96458.63;4971503;28;20166;-54
2021/10/04 09:32:27;;;;;;;2.40;2.00;;;;;;;19.38;100.00;96457.63;5078599;27;20605;-51
2021/10/04 09:35:16;;;;;;;2.55;2.30;;;;;;;19.26;100.00;96462.72;5042573;28;20084;-48
2021/10/04 09:37:46;;;;;;;4.47;2.38;;;;;;;19.34;100.00;96472.41;5050232;28;20092;-60
2021/10/04 09:40:34;;;;;;;4.80;2.55;;;;;;;19.44;100.00;96475.53;5052478;28;20149;-51
2021/10/04 09:43:04;;;;;;;2.63;2.40;;;;;;;19.26;100.00;96480.59;5059570;28;20553;-56
2021/10/04 09:45:33;;;;;;;3.15;2.55;;;;;;;19.64;100.00;96492.50;5041540;28;20432;-57
2021/10/04 09:48:11;;;;;;;2.93;2.63;;;;;;;19.62;100.00;96496.41;5051497;28;20065;-55
2021/10/04 09:50:41;;;;;;;3.30;2.60;;;;;;;19.57;100.00;96505.00;5053715;28;20080;-58
2021/10/04 09:53:13;;;;;;;2.47;2.28;;;;;;;19.60;100.00;96504.63;5045068;28;20519;-53
2021/10/04 09:55:43;;;;;;;2.67;2.47;;;;;;;20.09;100.00;96506.22;5023583;28;20576;-53
2021/10/04 09:58:14;;;;;;;2.53;2.03;;;;;;;20.00;100.00;96495.91;5023756;28;20469;-56
2021/10/04 10:00:54;;;;;;;3.25;2.30;;;;;;;20.07;100.00;96497.56;5042125;28;20111;-60
2021/10/04 10:03:26;;;;;;;3.17;2.40;;;;;;;19.81;100.00;96492.97;5024705;28;20066;-57
2021/10/04 10:05:56;;;;;;;2.63;2.42;;;;;;;19.42;100.00;96501.66;5034799;28;20056;-49
2021/10/04 10:08:26;;;;;;;3.80;2.40;;;;;;;19.51;100.00;96496.97;5045557;28;20072;-58
2021/10/04 10:10:56;;;;;;;3.50;2.42;;;;;;;20.04;100.00;96495.31;5058479;28;20080;-59
2021/10/04 10:13:26;;;;;;;2.35;2.15;;;;;;;20.17;100.00;96491.00;5049939;28;20080;-56
2021/10/04 10:16:00;;;;;;;2.60;2.28;;;;;;;20.05;100.00;96488.09;5051420;28;20069;-57
2021/10/04 10:18:33;;;;;;;3.40;2.30;;;;;;;19.51;100.00;96494.28;5051716;28;20072;-58
2021/10/04 10:21:04;;;;;;;3.83;2.65;;;;;;;19.59;100.00;96486.91;5048607;28;20111;-55
2021/10/04 10:23:43;;;;;;;2.67;2.35;;;;;;;19.98;100.00;96490.75;5037345;28;20073;-55
2021/10/04 10:26:30;;;;;;;2.38;2.17;;;;;;;19.91;100.00;96495.28;5031607;28;20547;-57
2021/10/04 10:29:24;;;;;;;2.67;2.35;;;;;;;19.96;100.00;96498.19;5033795;28;20463;-60
2021/10/04 10:32:08;;;;;;;2.92;2.50;;;;;;;19.86;100.00;96498.56;5040357;28;20102;-58
2021/10/04 10:34:53;;;;;;;3.13;2.58;;;;;;;19.94;100.00;96496.72;5041221;28;20091;-55
2021/10/04 10:37:24;;;;;;;2.88;2.40;;;;;;;20.15;100.00;96504.59;5016935;28;20478;-56
2021/10/04 10:39:54;;;;;;;6.68;2.50;;;;;;;20.38;100.00;96504.22;5043252;28;20065;-57
2021/10/04 10:42:26;;;;;;;4.13;2.58;;;;;;;20.01;100.00;96500.25;5043640;28;20100;-60
2021/10/04 10:45:19;;;;;;;7.68;3.30;;;;;;;19.51;100.00;96513.00;5020174;28;20057;-60
2021/10/04 10:47:55;;;;;;;4.47;2.97;;;;;;;19.77;100.00;96515.00;5005893;28;20778;-53
2021/10/04 10:50:37;;;;;;;5.85;3.70;;;;;;;19.77;100.00;96510.47;5012760;28;20524;-57
2021/10/04 10:53:21;;;;;;;6.40;3.97;;;;;;;19.25;100.00;96511.88;5012186;28;20542;-56
2021/10/04 10:55:56;;;;;;;4.25;3.47;;;;;;;19.32;100.00;96523.41;5039027;28;20084;-53
2021/10/04 10:58:26;;;;;;;6.18;4.38;;;;;;;19.70;100.00;96514.97;5031036;28;20084;-58
2021/10/04 11:01:16;;;;;;;6.50;4.40;;;;;;;19.25;100.00;96516.38;5041331;28;20062;-58
2021/10/04 11:03:47;;;;;;;8.65;5.13;;;;;;;19.26;100.00;96512.69;5037169;28;20076;-59
2021/10/04 11:06:17;;;;;;;11.55;7.35;;;;;;;19.15;100.00;96522.91;5037763;28;20106;-57
2021/10/04 11:08:55;;;;;;;;;;;;;;;18.98;100.00;96530.41;5023711;28;20069;-57
2021/10/04 11:11:32;;;;;;;10.35;6.05;;;;;;;19.33;100.00;96532.25;5018415;28;22547;-58
2021/10/04 11:14:20;;;;;;;7.60;4.55;;;;;;;18.97;100.00;96526.09;5040196;28;20065;-52
2021/10/04 11:16:59;;;;;;;9.90;6.00;;;;;;;19.38;100.00;96529.84;5037893;28;20084;-55
2021/10/04 11:19:31;;;;;;;9.20;6.40;;;;;;;19.85;100.00;96537.03;5030821;28;20151;-54
2021/10/04 11:22:01;;;;;;;11.07;6.10;;;;;;;19.73;100.00;96535.97;5011198;28;20673;-48
2021/10/04 11:24:29;;;;;;;6.75;5.18;;;;;;;19.06;100.00;96544.66;5016845;28;20073;-53
2021/10/04 11:27:01;;;;;;;7.78;4.50;;;;;;;18.81;100.00;96544.28;5017893;28;20551;-52
2021/10/04 11:29:30;;;;;;;6.13;4.18;;;;;;;19.07;100.00;96554.34;5001776;28;20520;-60
2021/10/04 11:31:58;;;;;;;3.65;3.28;;;;;;;18.74;100.00;96545.03;4999817;28;20077;-57
2021/10/04 11:34:27;;;;;;;6.07;3.63;;;;;;;18.66;100.00;96549.69;5005301;28;20551;-57
2021/10/04 11:36:57;;;;;;;6.32;4.20;;;;;;;18.96;100.00;96542.34;5009737;28;20073;-56
2021/10/04 11:39:27;;;;;;;;;;;;;;;19.59;100.00;96540.44;5023225;28;20069;-56
2021/10/04 11:41:58;;;;;;;4.28;3.88;;;;;;;19.30;100.00;96538.00;5041128;28;19955;-54
2021/10/04 11:44:28;;;;;;;3.85;3.45;;;;;;;19.40;100.00;96547.31;5031278;28;20075;-57